sensor_id;sensor_type;location;lat;lon;timestamp;pressure;altitude;pressure_sealevel;temperature;humidity
23574;BME280;11965;53.640;10.050;2023-02-14T00:00:28;103619.22;;;5.02;98.28
23574;BME280;11965;53.640;10.050;2023-02-14T00:02:54;103622.78;;;5.04;97.23
23574;BME280;11965;53.640;10.050;2023-02-14T00:05:22;103623.78;;;5.03;96.57
23574;BME280;11965;53.640;10.050;2023-02-14T00:07:50;103612.47;;;5.07;95.74
23574;BME280;11965;53.640;10.050;2023-02-14T00:10:17;103612.59;;;5.06;94.02
23574;BME280;11965;53.640;10.050;2023-02-14T00:12:44;103624.22;;;4.95;97.45
23574;BME280;11965;53.640;10.050;2023-02-14T00:15:10;103626.84;;;4.97;95.22
23574;BME280;11965;53.640;10.050;2023-02-14T00:17:50;103632.09;;;5.01;95.97
23574;BME280;11965;53.640;10.050;2023-02-14T00:20:18;103626.41;;;5.04;96.60
23574;BME280;11965;53.640;10.050;2023-02-14T00:22:44;103630.22;;;5.02;94.48
23574;BME280;11965;53.640;10.050;2023-02-14T00:25:13;103637.25;;;4.92;94.98
23574;BME280;11965;53.640;10.050;2023-02-14T00:27:40;103636.47;;;4.90;95.72
23574;BME280;11965;53.640;10.050;2023-02-14T00:30:08;103633.72;;;4.90;94.95
23574;BME280;11965;53.640;10.050;2023-02-14T00:32:37;103636.91;;;4.98;95.16
23574;BME280;11965;53.640;10.050;2023-02-14T00:35:05;103633.09;;;5.00;95.68
23574;BME280;11965;53.640;10.050;2023-02-14T00:37:32;103634.84;;;5.01;96.98
23574;BME280;11965;53.640;10.050;2023-02-14T00:39:58;103634.03;;;4.99;96.75
23574;BME280;11965;53.640;10.050;2023-02-14T00:42:27;103631.41;;;4.98;97.52
23574;BME280;11965;53.640;10.050;2023-02-14T00:44:53;103626.72;;;5.00;97.03
23574;BME280;11965;53.640;10.050;2023-02-14T00:47:20;103618.47;;;5.00;97.92
23574;BME280;11965;53.640;10.050;2023-02-14T00:49:47;103615.97;;;4.95;98.94
23574;BME280;11965;53.640;10.050;2023-02-14T00:52:14;103617.22;;;4.90;99.56
23574;BME280;11965;53.640;10.050;2023-02-14T00:54:41;103619.53;;;4.81;99.81
23574;BME280;11965;53.640;10.050;2023-02-14T00:57:08;103614.91;;;4.82;100.00
23574;BME280;11965;53.640;10.050;2023-02-14T00:59:36;103615.44;;;4.88;98.67
23574;BME280;11965;53.640;10.050;2023-02-14T01:02:03;103614.47;;;4.90;97.13
23574;BME280;11965;53.640;10.050;2023-02-14T01:04:30;103615.34;;;4.90;97.11
23574;BME280;11965;53.640;10.050;2023-02-14T01:06:57;103613.59;;;4.89;97.57
23574;BME280;11965;53.640;10.050;2023-02-14T01:09:23;103605.16;;;4.92;98.98
23574;BME280;11965;53.640;10.050;2023-02-14T01:11:50;103602.66;;;4.87;98.44
23574;BME280;11965;53.640;10.050;2023-02-14T01:14:17;103602.84;;;4.84;99.27
23574;BME280;11965;53.640;10.050;2023-02-14T01:16:45;103603.38;;;4.75;100.00
23574;BME280;11965;53.640;10.050;2023-02-14T01:19:12;103604.63;;;4.70;100.00
23574;BME280;11965;53.640;10.050;2023-02-14T01:21:42;103599.69;;;4.76;98.80
23574;BME280;11965;53.640;10.050;2023-02-14T01:24:12;103600.63;;;4.75;99.32
23574;BME280;11965;53.640;10.050;2023-02-14T01:26:41;103600.38;;;4.80;97.65
23574;BME280;11965;53.640;10.050;2023-02-14T01:29:08;103598.16;;;4.86;96.82
23574;BME280;11965;53.640;10.050;2023-02-14T01:31:37;103586.09;;;4.89;95.84
23574;BME280;11965;53.640;10.050;2023-02-14T01:34:05;103592.66;;;4.86;95.62
23574;BME280;11965;53.640;10.050;2023-02-14T01:36:35;103583.63;;;4.84;94.12
23574;BME280;11965;53.640;10.050;2023-02-14T01:39:04;103582.75;;;4.84;96.00
23574;BME280;11965;53.640;10.050;2023-02-14T01:41:34;103590.88;;;4.85;96.34
23574;BME280;11965;53.640;10.050;2023-02-14T01:44:05;103593.91;;;4.81;96.35
23574;BME280;11965;53.640;10.050;2023-02-14T01:46:34;103589.56;;;4.77;95.81
23574;BME280;11965;53.640;10.050;2023-02-14T01:49:06;103592.22;;;4.78;96.83
23574;BME280;11965;53.640;10.050;2023-02-14T01:51:38;103596.47;;;4.68;100.00
23574;BME280;11965;53.640;10.050;2023-02-14T01:54:08;103578.31;;;4.65;100.00
23574;BME280;11965;53.640;10.050;2023-02-14T01:56:39;103580.25;;;4.63;100.00
23574;BME280;11965;53.640;10.050;2023-02-14T01:59:11;103587.88;;;4.58;100.00
23574;BME280;11965;53.640;10.050;2023-02-14T02:01:41;103583.19;;;4.60;99.90
23574;BME280;11965;53.640;10.050;2023-02-14T02:04:16;103576.88;;;4.58;100.00
23574;BME280;11965;53.640;10.050;2023-02-14T02:06:50;103578.38;;;4.64;100.00
23574;BME280;11965;53.640;10.050;2023-02-14T02:09:23;103570.88;;;4.68;98.06
23574;BME280;11965;53.640;10.050;2023-02-14T02:11:53;103565.28;;;4.69;98.50
23574;BME280;11965;53.640;10.050;2023-02-14T02:14:21;103561.81;;;4.65;97.90
23574;BME280;11965;53.640;10.050;2023-02-14T02:17:02;103559.88;;;4.68;100.00
23574;BME280;11965;53.640;10.050;2023-02-14T02:23:02;103565.81;;;4.60;100.00
23574;BME280;11965;53.640;10.050;2023-02-14T02:32:29;103556.97;;;4.55;100.00
23574;BME280;11965;53.640;10.050;2023-02-14T02:35:24;103562.09;;;4.61;100.00
23574;BME280;11965;53.640;10.050;2023-02-14T02:38:12;103559.72;;;4.55;100.00
23574;BME280;11965;53.640;10.050;2023-02-14T02:40:49;103544.97;;;4.56;100.00
23574;BME280;11965;53.640;10.050;2023-02-14T02:43:37;103557.31;;;4.49;100.00
23574;BME280;11965;53.640;10.050;2023-02-14T02:46:17;103555.97;;;4.40;100.00
23574;BME280;11965;53.640;10.050;2023-02-14T02:49:12;103550.47;;;4.40;100.00
23574;BME280;11965;53.640;10.050;2023-02-14T02:52:06;103545.28;;;4.35;100.00
23574;BME280;11965;53.640;10.050;2023-02-14T02:55:05;103551.81;;;4.33;100.00
23574;BME280;11965;53.640;10.050;2023-02-14T02:57:38;103547.09;;;4.35;100.00
23574;BME280;11965;53.640;10.050;2023-02-14T03:00:10;103550.38;;;4.26;100.00
23574;BME280;11965;53.640;10.050;2023-02-14T03:02:43;103548.53;;;4.26;100.00
23574;BME280;11965;53.640;10.050;2023-02-14T03:05:31;103549.50;;;4.25;100.00
23574;BME280;11965;53.640;10.050;2023-02-14T03:08:01;103545.94;;;4.23;100.00
23574;BME280;11965;53.640;10.050;2023-02-14T03:10:33;103554.00;;;4.26;100.00
23574;BME280;11965;53.640;10.050;2023-02-14T03:13:26;103541.44;;;4.22;100.00
23574;BME280;11965;53.640;10.050;2023-02-14T03:19:11;103531.59;;;4.18;100.00
23574;BME280;11965;53.640;10.050;2023-02-14T03:21:49;103543.28;;;4.21;100.00
23574;BME280;11965;53.640;10.050;2023-02-14T03:24:26;103529.47;;;4.23;100.00
23574;BME280;11965;53.640;10.050;2023-02-14T03:27:03;103531.34;;;4.23;100.00
23574;BME280;11965;53.640;10.050;2023-02-14T03:29:42;103534.63;;;4.29;100.00
23574;BME280;11965;53.640;10.050;2023-02-14T03:32:20;103538.59;;;4.24;100.00
23574;BME280;11965;53.640;10.050;2023-02-14T03:34:56;103539.84;;;4.18;100.00
23574;BME280;11965;53.640;10.050;2023-02-14T03:37:31;103536.84;;;4.23;100.00
23574;BME280;11965;53.640;10.050;2023-02-14T03:40:07;103543.22;;;4.23;100.00
23574;BME280;11965;53.640;10.050;2023-02-14T03:42:41;103543.56;;;4.17;100.00
23574;BME280;11965;53.640;10.050;2023-02-14T03:45:16;103534.88;;;4.09;100.00
23574;BME280;11965;53.640;10.050;2023-02-14T03:47:46;103525.59;;;4.11;100.00
23574;BME280;11965;53.640;10.050;2023-02-14T03:50:18;103519.91;;;4.14;100.00
23574;BME280;11965;53.640;10.050;2023-02-14T03:52:49;103521.59;;;4.17;100.00
23574;BME280;11965;53.640;10.050;2023-02-14T03:55:29;103522.72;;;4.13;100.00
23574;BME280;11965;53.640;10.050;2023-02-14T03:58:05;103522.09;;;4.08;100.00
23574;BME280;11965;53.640;10.050;2023-02-14T04:00:37;103516.63;;;4.08;100.00
23574;BME280;11965;53.640;10.050;2023-02-14T04:03:10;103516.28;;;4.14;100.00
23574;BME280;11965;53.640;10.050;2023-02-14T04:05:40;103516.88;;;4.19;100.00
23574;BME280;11965;53.640;10.050;2023-02-14T04:08:20;103510.69;;;4.15;100.00
23574;BME280;11965;53.640;10.050;2023-02-14T04:10:49;103507.00;;;4.16;100.00
23574;BME280;11965;53.640;10.050;2023-02-14T04:13:16;103503.63;;;4.11;100.00
23574;BME280;11965;53.640;10.050;2023-02-14T04:15:43;103505.38;;;4.12;100.00
23574;BME280;11965;53.640;10.050;2023-02-14T04:18:10;103507.16;;;4.13;100.00
23574;BME280;11965;53.640;10.050;2023-02-14T04:20:54;103510.81;;;4.14;100.00
23574;BME280;11965;53.640;10.050;2023-02-14T04:23:21;103510.69;;;4.15;100.00
23574;BME280;11965;53.640;10.050;2023-02-14T04:25:49;103505.38;;;4.12;100.00
23574;BME280;11965;53.640;10.050;2023-02-14T04:28:16;103510.81;;;4.14;100.00
23574;BME280;11965;53.640;10.050;2023-02-14T04:30:43;103510.69;;;4.15;100.00
23574;BME280;11965;53.640;10.050;2023-02-14T04:33:10;103506.19;;;4.14;100.00
23574;BME280;11965;53.640;10.050;2023-02-14T04:35:37;103503.44;;;4.14;100.00
23574;BME280;11965;53.640;10.050;2023-02-14T04:38:05;103515.13;;;4.18;100.00
23574;BME280;11965;53.640;10.050;2023-02-14T04:40:32;103501.41;;;4.18;100.00
23574;BME280;11965;53.640;10.050;2023-02-14T04:43:00;103504.06;;;4.19;100.00
23574;BME280;11965;53.640;10.050;2023-02-14T04:45:29;103503.88;;;4.23;100.00
23574;BME280;11965;53.640;10.050;2023-02-14T04:47:56;103503.78;;;4.24;100.00
23574;BME280;11965;53.640;10.050;2023-02-14T04:50:22;103495.53;;;4.24;100.00
23574;BME280;11965;53.640;10.050;2023-02-14T04:52:50;103504.50;;;4.28;100.00
23574;BME280;11965;53.640;10.050;2023-02-14T04:55:17;103489.91;;;4.27;100.00
23574;BME280;11965;53.640;10.050;2023-02-14T04:57:44;103503.09;;;4.20;100.00
23574;BME280;11965;53.640;10.050;2023-02-14T05:00:14;103495.47;;;4.26;100.00
23574;BME280;11965;53.640;10.050;2023-02-14T05:02:40;103492.91;;;4.23;100.00
23574;BME280;11965;53.640;10.050;2023-02-14T05:05:07;103497.16;;;4.28;100.00
23574;BME280;11965;53.640;10.050;2023-02-14T05:07:34;103489.91;;;4.27;100.00
23574;BME280;11965;53.640;10.050;2023-02-14T05:10:01;103493.44;;;4.29;100.00
23574;BME280;11965;53.640;10.050;2023-02-14T05:12:28;103500.88;;;4.27;100.00
23574;BME280;11965;53.640;10.050;2023-02-14T05:14:55;103495.41;;;4.27;100.00
23574;BME280;11965;53.640;10.050;2023-02-14T05:17:23;103482.44;;;4.29;100.00
23574;BME280;11965;53.640;10.050;2023-02-14T05:19:50;103489.00;;;4.27;100.00
23574;BME280;11965;53.640;10.050;2023-02-14T05:22:17;103493.34;;;4.31;100.00
23574;BME280;11965;53.640;10.050;2023-02-14T05:24:44;103497.06;;;4.30;100.00
23574;BME280;11965;53.640;10.050;2023-02-14T05:27:11;103485.28;;;4.28;100.00
23574;BME280;11965;53.640;10.050;2023-02-14T05:29:38;103489.09;;;4.25;100.00
23574;BME280;11965;53.640;10.050;2023-02-14T05:32:04;103493.78;;;4.23;100.00
23574;BME280;11965;53.640;10.050;2023-02-14T05:34:33;103491.22;;;4.20;100.00
23574;BME280;11965;53.640;10.050;2023-02-14T05:36:59;103484.75;;;4.21;100.00
23574;BME280;11965;53.640;10.050;2023-02-14T05:39:27;103486.44;;;4.24;100.00
23574;BME280;11965;53.640;10.050;2023-02-14T05:41:54;103493.97;;;4.20;100.00
23574;BME280;11965;53.640;10.050;2023-02-14T05:44:22;103477.50;;;4.20;100.00
23574;BME280;11965;53.640;10.050;2023-02-14T05:46:49;103482.81;;;4.23;100.00
23574;BME280;11965;53.640;10.050;2023-02-14T05:49:16;103475.63;;;4.20;100.00
23574;BME280;11965;53.640;10.050;2023-02-14T05:51:44;103479.44;;;4.18;100.00
23574;BME280;11965;53.640;10.050;2023-02-14T05:54:11;103487.16;;;4.11;100.00
23574;BME280;11965;53.640;10.050;2023-02-14T05:56:37;103485.91;;;4.17;100.00
23574;BME280;11965;53.640;10.050;2023-02-14T05:59:04;103478.44;;;4.19;100.00
23574;BME280;11965;53.640;10.050;2023-02-14T06:01:31;103483.88;;;4.20;100.00
23574;BME280;11965;53.640;10.050;2023-02-14T06:03:58;103477.69;;;4.17;100.00
23574;BME280;11965;53.640;10.050;2023-02-14T06:06:25;103483.34;;;4.14;100.00
23574;BME280;11965;53.640;10.050;2023-02-14T06:08:53;103477.50;;;4.20;100.00
23574;BME280;11965;53.640;10.050;2023-02-14T06:11:20;103477.84;;;4.14;100.00
23574;BME280;11965;53.640;10.050;2023-02-14T06:13:47;103476.06;;;4.13;100.00
23574;BME280;11965;53.640;10.050;2023-02-14T06:16:14;103476.06;;;4.13;100.00
23574;BME280;11965;53.640;10.050;2023-02-14T06:18:40;103473.50;;;4.10;100.00
23574;BME280;11965;53.640;10.050;2023-02-14T06:21:07;103477.75;;;4.15;100.00
23574;BME280;11965;53.640;10.050;2023-02-14T06:23:34;103478.56;;;4.17;100.00
23574;BME280;11965;53.640;10.050;2023-02-14T06:26:02;103485.28;;;4.12;100.00
23574;BME280;11965;53.640;10.050;2023-02-14T06:28:29;103494.91;;;4.19;100.00
23574;BME280;11965;53.640;10.050;2023-02-14T06:30:56;103487.31;;;4.24;100.00
23574;BME280;11965;53.640;10.050;2023-02-14T06:33:23;103483.50;;;4.27;100.00
23574;BME280;11965;53.640;10.050;2023-02-14T06:35:52;103484.31;;;4.29;100.00
23574;BME280;11965;53.640;10.050;2023-02-14T06:38:19;103489.72;;;4.30;100.00
23574;BME280;11965;53.640;10.050;2023-02-14T06:40:45;103492.38;;;4.32;100.00
23574;BME280;11965;53.640;10.050;2023-02-14T06:43:14;103493.16;;;4.34;100.00
23574;BME280;11965;53.640;10.050;2023-02-14T06:45:40;103496.91;;;4.33;100.00
23574;BME280;11965;53.640;10.050;2023-02-14T06:48:08;103502.22;;;4.36;100.00
23574;BME280;11965;53.640;10.050;2023-02-14T06:50:36;103500.53;;;4.33;100.00
23574;BME280;11965;53.640;10.050;2023-02-14T06:53:02;103488.66;;;4.33;100.00
23574;BME280;11965;53.640;10.050;2023-02-14T06:55:30;103498.47;;;4.37;100.00
23574;BME280;11965;53.640;10.050;2023-02-14T06:57:57;103491.41;;;4.33;100.00
23574;BME280;11965;53.640;10.050;2023-02-14T07:00:25;103500.16;;;4.39;100.00
23574;BME280;11965;53.640;10.050;2023-02-14T07:02:52;103507.25;;;4.43;100.00
23574;BME280;11965;53.640;10.050;2023-02-14T07:05:19;103507.88;;;4.49;100.00
23574;BME280;11965;53.640;10.050;2023-02-14T07:07:46;103500.41;;;4.51;100.00
23574;BME280;11965;53.640;10.050;2023-02-14T07:10:14;103502.09;;;4.53;100.00
23574;BME280;11965;53.640;10.050;2023-02-14T07:12:41;103506.25;;;4.60;100.00
23574;BME280;11965;53.640;10.050;2023-02-14T07:15:10;103486.91;;;4.62;100.00
23574;BME280;11965;53.640;10.050;2023-02-14T07:17:39;103494.09;;;4.64;100.00
23574;BME280;11965;53.640;10.050;2023-02-14T07:20:07;103490.13;;;4.70;100.00
23574;BME280;11965;53.640;10.050;2023-02-14T07:22:35;103490.81;;;4.74;100.00
23574;BME280;11965;53.640;10.050;2023-02-14T07:25:03;103493.38;;;4.77;100.00
23574;BME280;11965;53.640;10.050;2023-02-14T07:27:30;103481.81;;;4.86;100.00
23574;BME280;11965;53.640;10.050;2023-02-14T07:29:56;103489.72;;;4.92;100.00
23574;BME280;11965;53.640;10.050;2023-02-14T07:32:23;103487.75;;;4.94;100.00
23574;BME280;11965;53.640;10.050;2023-02-14T07:34:52;103488.19;;;5.02;100.00
23574;BME280;11965;53.640;10.050;2023-02-14T07:37:18;103499.69;;;5.09;100.00
23574;BME280;11965;53.640;10.050;2023-02-14T07:39:45;103484.25;;;5.06;100.00
23574;BME280;11965;53.640;10.050;2023-02-14T07:42:12;103479.03;;;5.02;100.00
23574;BME280;11965;53.640;10.050;2023-02-14T07:44:39;103487.88;;;5.07;100.00
23574;BME280;11965;53.640;10.050;2023-02-14T07:47:08;103485.31;;;5.04;100.00
23574;BME280;11965;53.640;10.050;2023-02-14T07:49:35;103482.19;;;5.10;100.00
23574;BME280;11965;53.640;10.050;2023-02-14T07:52:04;103485.34;;;5.18;100.00
23574;BME280;11965;53.640;10.050;2023-02-14T07:54:31;103482.13;;;5.26;100.00
23574;BME280;11965;53.640;10.050;2023-02-14T07:56:58;103480.09;;;5.29;100.00
23574;BME280;11965;53.640;10.050;2023-02-14T07:59:26;103486.16;;;5.35;100.00
23574;BME280;11965;53.640;10.050;2023-02-14T08:01:53;103475.88;;;5.38;100.00
23574;BME280;11965;53.640;10.050;2023-02-14T08:04:19;103480.41;;;5.53;100.00
23574;BME280;11965;53.640;10.050;2023-02-14T08:06:51;103478.22;;;5.59;99.85
23574;BME280;11965;53.640;10.050;2023-02-14T08:09:19;103484.44;;;5.62;100.00
23574;BME280;11965;53.640;10.050;2023-02-14T08:11:50;103485.53;;;5.74;100.00
23574;BME280;11965;53.640;10.050;2023-02-14T08:14:34;103476.78;;;5.67;100.00
23574;BME280;11965;53.640;10.050;2023-02-14T08:17:02;103480.00;;;5.74;99.17
23574;BME280;11965;53.640;10.050;2023-02-14T08:19:29;103477.25;;;5.88;97.89
23574;BME280;11965;53.640;10.050;2023-02-14T08:21:56;103480.72;;;5.92;97.32
23574;BME280;11965;53.640;10.050;2023-02-14T08:24:24;103479.44;;;5.83;96.71
23574;BME280;11965;53.640;10.050;2023-02-14T08:26:52;103475.50;;;5.87;95.50
23574;BME280;11965;53.640;10.050;2023-02-14T08:29:18;103480.78;;;5.90;96.87
23574;BME280;11965;53.640;10.050;2023-02-14T08:31:45;103473.53;;;6.04;96.87
23574;BME280;11965;53.640;10.050;2023-02-14T08:34:14;103474.03;;;6.10;97.03
23574;BME280;11965;53.640;10.050;2023-02-14T08:36:41;103475.59;;;6.14;97.44
23574;BME280;11965;53.640;10.050;2023-02-14T08:39:09;103480.88;;;6.32;96.23
23574;BME280;11965;53.640;10.050;2023-02-14T08:41:37;103478.75;;;6.08;95.97
23574;BME280;11965;53.640;10.050;2023-02-14T08:44:04;103475.50;;;6.16;95.44
23574;BME280;11965;53.640;10.050;2023-02-14T08:46:31;103481.22;;;6.13;96.52
23574;BME280;11965;53.640;10.050;2023-02-14T08:48:58;103481.13;;;6.00;97.15
23574;BME280;11965;53.640;10.050;2023-02-14T08:51:25;103474.41;;;5.90;98.81
23574;BME280;11965;53.640;10.050;2023-02-14T08:53:51;103468.94;;;5.75;99.17
23574;BME280;11965;53.640;10.050;2023-02-14T08:56:20;103485.81;;;5.84;96.68
23574;BME280;11965;53.640;10.050;2023-02-14T08:58:51;103479.53;;;5.82;100.00
23574;BME280;11965;53.640;10.050;2023-02-14T09:01:19;103480.13;;;5.72;98.45
23574;BME280;11965;53.640;10.050;2023-02-14T09:03:46;103481.97;;;5.72;99.82
23574;BME280;11965;53.640;10.050;2023-02-14T09:06:15;103474.50;;;5.74;100.00
23574;BME280;11965;53.640;10.050;2023-02-14T09:08:43;103469.81;;;5.76;99.08
23574;BME280;11965;53.640;10.050;2023-02-14T09:11:13;103482.66;;;5.90;99.75
23574;BME280;11965;53.640;10.050;2023-02-14T09:13:41;103480.91;;;5.89;99.34
23574;BME280;11965;53.640;10.050;2023-02-14T09:16:11;103478.91;;;5.91;99.66
23574;BME280;11965;53.640;10.050;2023-02-14T09:18:39;103474.03;;;5.96;99.14
23574;BME280;11965;53.640;10.050;2023-02-14T09:21:07;103469.03;;;6.03;98.38
23574;BME280;11965;53.640;10.050;2023-02-14T09:23:35;103458.47;;;6.09;96.90
23574;BME280;11965;53.640;10.050;2023-02-14T09:26:04;103462.59;;;6.16;97.50
23574;BME280;11965;53.640;10.050;2023-02-14T09:28:32;103459.56;;;6.21;97.38
23574;BME280;11965;53.640;10.050;2023-02-14T09:31:09;103465.72;;;6.25;96.49
23574;BME280;11965;53.640;10.050;2023-02-14T09:33:36;103465.53;;;6.28;97.29
23574;BME280;11965;53.640;10.050;2023-02-14T09:36:21;103466.69;;;6.38;96.74
23574;BME280;11965;53.640;10.050;2023-02-14T09:39:05;103449.63;;;6.46;97.87
23574;BME280;11965;53.640;10.050;2023-02-14T09:41:51;103458.47;;;6.51;95.02
23574;BME280;11965;53.640;10.050;2023-02-14T09:44:27;103450.78;;;6.56;94.05
23574;BME280;11965;53.640;10.050;2023-02-14T09:47:04;103455.00;;;6.61;96.22
23574;BME280;11965;53.640;10.050;2023-02-14T09:49:36;103447.53;;;6.76;95.02
23574;BME280;11965;53.640;10.050;2023-02-14T09:52:08;103444.75;;;6.76;91.74
23574;BME280;11965;53.640;10.050;2023-02-14T09:54:42;103440.72;;;6.95;92.22
23574;BME280;11965;53.640;10.050;2023-02-14T09:57:20;103436.31;;;6.92;92.62
23574;BME280;11965;53.640;10.050;2023-02-14T09:59:53;103438.44;;;7.01;93.78
23574;BME280;11965;53.640;10.050;2023-02-14T10:02:38;103438.97;;;7.06;92.12
23574;BME280;11965;53.640;10.050;2023-02-14T10:05:13;103437.88;;;7.09;91.77
23574;BME280;11965;53.640;10.050;2023-02-14T10:07:55;103436.59;;;7.15;90.87
23574;BME280;11965;53.640;10.050;2023-02-14T10:10:27;103441.88;;;7.18;92.82
23574;BME280;11965;53.640;10.050;2023-02-14T10:13:04;103434.69;;;7.28;89.86
23574;BME280;11965;53.640;10.050;2023-02-14T10:15:37;103441.56;;;7.35;91.09
23574;BME280;11965;53.640;10.050;2023-02-14T10:18:15;103439.09;;;7.30;89.70
23574;BME280;11965;53.640;10.050;2023-02-14T10:20:48;103442.44;;;7.23;87.47
23574;BME280;11965;53.640;10.050;2023-02-14T10:23:26;103437.03;;;7.34;91.74
23574;BME280;11965;53.640;10.050;2023-02-14T10:25:59;103438.16;;;7.44;90.68
23574;BME280;11965;53.640;10.050;2023-02-14T10:28:31;103434.06;;;7.50;91.06
23574;BME280;11965;53.640;10.050;2023-02-14T10:31:14;103433.59;;;7.56;90.18
23574;BME280;11965;53.640;10.050;2023-02-14T10:33:51;103428.88;;;7.58;91.96
23574;BME280;11965;53.640;10.050;2023-02-14T10:39:46;103424.09;;;7.60;89.80
23574;BME280;11965;53.640;10.050;2023-02-14T10:42:24;103430.72;;;7.70;88.79
23574;BME280;11965;53.640;10.050;2023-02-14T10:45:08;103420.34;;;7.74;88.32
23574;BME280;11965;53.640;10.050;2023-02-14T10:47:45;103420.44;;;7.85;85.94
23574;BME280;11965;53.640;10.050;2023-02-14T10:50:26;103416.78;;;7.85;88.16
23574;BME280;11965;53.640;10.050;2023-02-14T10:53:06;103416.19;;;7.92;87.89
23574;BME280;11965;53.640;10.050;2023-02-14T10:55:45;103413.31;;;7.94;86.87
23574;BME280;11965;53.640;10.050;2023-02-14T10:58:16;103414.44;;;7.91;87.18
23574;BME280;11965;53.640;10.050;2023-02-14T11:00:53;103403.69;;;8.00;88.25
23574;BME280;11965;53.640;10.050;2023-02-14T11:03:22;103410.09;;;8.00;87.51
23574;BME280;11965;53.640;10.050;2023-02-14T11:05:51;103408.25;;;8.01;87.95
23574;BME280;11965;53.640;10.050;2023-02-14T11:08:25;103402.03;;;7.97;84.78
23574;BME280;11965;53.640;10.050;2023-02-14T11:11:00;103405.47;;;8.01;85.73
23574;BME280;11965;53.640;10.050;2023-02-14T11:13:32;103403.34;;;8.04;86.83
23574;BME280;11965;53.640;10.050;2023-02-14T11:16:01;103394.59;;;8.10;86.64
23574;BME280;11965;53.640;10.050;2023-02-14T11:18:30;103392.94;;;8.08;87.36
23574;BME280;11965;53.640;10.050;2023-02-14T11:21:07;103391.25;;;8.18;86.10
23574;BME280;11965;53.640;10.050;2023-02-14T11:23:37;103392.47;;;8.14;88.03
23574;BME280;11965;53.640;10.050;2023-02-14T11:26:09;103389.94;;;8.11;86.60
23574;BME280;11965;53.640;10.050;2023-02-14T11:28:47;103377.72;;;8.02;86.77
23574;BME280;11965;53.640;10.050;2023-02-14T11:31:24;103378.47;;;8.17;85.90
23574;BME280;11965;53.640;10.050;2023-02-14T11:33:51;103372.94;;;8.17;86.27
23574;BME280;11965;53.640;10.050;2023-02-14T11:36:20;103362.50;;;8.21;85.91
23574;BME280;11965;53.640;10.050;2023-02-14T11:38:55;103360.53;;;8.23;84.98
23574;BME280;11965;53.640;10.050;2023-02-14T11:41:23;103362.41;;;8.22;85.52
23574;BME280;11965;53.640;10.050;2023-02-14T11:43:50;103361.22;;;8.37;84.42
23574;BME280;11965;53.640;10.050;2023-02-14T11:46:25;103355.47;;;8.40;83.39
23574;BME280;11965;53.640;10.050;2023-02-14T11:48:55;103345.34;;;8.28;83.30
23574;BME280;11965;53.640;10.050;2023-02-14T11:51:30;103344.34;;;8.29;87.24
23574;BME280;11965;53.640;10.050;2023-02-14T11:54:01;103342.56;;;8.41;86.31
23574;BME280;11965;53.640;10.050;2023-02-14T11:56:46;103343.84;;;8.35;83.41
23574;BME280;11965;53.640;10.050;2023-02-14T11:59:24;103338.22;;;8.37;84.53
23574;BME280;11965;53.640;10.050;2023-02-14T12:01:54;103328.59;;;8.43;84.30
23574;BME280;11965;53.640;10.050;2023-02-14T12:04:30;103324.19;;;8.40;83.65
23574;BME280;11965;53.640;10.050;2023-02-14T12:07:16;103318.00;;;8.36;83.28
23574;BME280;11965;53.640;10.050;2023-02-14T12:09:46;103300.13;;;8.29;82.62
23574;BME280;11965;53.640;10.050;2023-02-14T12:12:19;103315.91;;;8.40;84.89
23574;BME280;11965;53.640;10.050;2023-02-14T12:14:48;103317.13;;;8.36;84.84
23574;BME280;11965;53.640;10.050;2023-02-14T12:17:30;103305.06;;;8.37;83.17
23574;BME280;11965;53.640;10.050;2023-02-14T12:20:03;103305.06;;;8.37;86.14
23574;BME280;11965;53.640;10.050;2023-02-14T12:22:41;103304.84;;;8.40;83.92
23574;BME280;11965;53.640;10.050;2023-02-14T12:25:15;103287.47;;;8.38;85.61
23574;BME280;11965;53.640;10.050;2023-02-14T12:27:48;103305.50;;;8.44;85.79
23574;BME280;11965;53.640;10.050;2023-02-14T12:30:18;103296.59;;;8.51;85.40
23574;BME280;11965;53.640;10.050;2023-02-14T12:32:48;103292.41;;;8.46;84.02
23574;BME280;11965;53.640;10.050;2023-02-14T12:35:17;103294.72;;;8.52;85.44
23574;BME280;11965;53.640;10.050;2023-02-14T12:37:59;103291.19;;;8.50;84.15
23574;BME280;11965;53.640;10.050;2023-02-14T12:40:42;103290.19;;;8.51;84.89
23574;BME280;11965;53.640;10.050;2023-02-14T12:43:44;103286.53;;;8.50;84.35
23574;BME280;11965;53.640;10.050;2023-02-14T12:49:38;103277.50;;;8.59;84.73
23574;BME280;11965;53.640;10.050;2023-02-14T12:52:25;103278.75;;;8.55;85.75
23574;BME280;11965;53.640;10.050;2023-02-14T12:55:13;103267.72;;;8.55;84.31
23574;BME280;11965;53.640;10.050;2023-02-14T12:57:51;103267.56;;;8.57;83.38
23574;BME280;11965;53.640;10.050;2023-02-14T13:00:30;103270.75;;;8.63;83.78
23574;BME280;11965;53.640;10.050;2023-02-14T13:03:26;103262.44;;;8.63;83.38
23574;BME280;11965;53.640;10.050;2023-02-14T13:06:03;103256.94;;;8.75;84.23
23574;BME280;11965;53.640;10.050;2023-02-14T13:08:51;103249.91;;;8.71;84.99
23574;BME280;11965;53.640;10.050;2023-02-14T13:11:37;103249.00;;;8.70;83.38
23574;BME280;11965;53.640;10.050;2023-02-14T13:14:26;103242.59;;;8.70;82.44
23574;BME280;11965;53.640;10.050;2023-02-14T13:17:03;103247.00;;;8.83;83.49
23574;BME280;11965;53.640;10.050;2023-02-14T13:19:40;103239.72;;;8.82;81.79
23574;BME280;11965;53.640;10.050;2023-02-14T13:22:14;103228.91;;;8.79;80.45
23574;BME280;11965;53.640;10.050;2023-02-14T13:24:46;103230.16;;;8.75;83.16
23574;BME280;11965;53.640;10.050;2023-02-14T13:27:21;103222.75;;;8.76;81.97